LFBO

Toulouse-Blagnac Airport

Toulouse/Blagnac, France
TAF LFBO 210500Z 2106/2212 13010KT CAVOK BECMG 2123/2201 VRB02KT BECMG 2207/2209 14010KT
Issued Valid From Valid To
Apr-21 @ 05:00 UTC
(5 hours ago)
Apr-21 @ 06:00 UTC
(4 hours ago)
Apr-22 @ 12:00 UTC
(-1 days ago)
Apr-21 @ 06:00 to Apr-21 @ 23:00
TAF LFBO 210500Z 2106/2212 13010KT CAVOK
Wind Visibility Clouds Conditions
130° at 10 knots 10,000+ meters
  • No significant clouds
Becoming Apr-21 @ 23:00 to Apr-22 @ 07:00
BECMG 2123/2201 VRB02KT
Wind Visibility Clouds Conditions
Variable at 2 knots 10,000+ meters
  • No significant clouds
Becoming Apr-22 @ 07:00 to Apr-22 @ 12:00
BECMG 2207/2209 14010KT
Wind Visibility Clouds Conditions
140° at 10 knots 10,000+ meters
  • No significant clouds
TAF LFBO 210500Z 2106/2212 13010KT CAVOK BECMG 2123/2201 VRB02KT BECMG 2207/2209 14010KT
Issued Apr-21 @ 05:00 UTC
(5 hours ago)
Valid From Apr-21 @ 06:00 UTC
(4 hours ago)
Valid To Apr-22 @ 12:00 UTC
(-1 days ago)
Apr-21 @ 06:00 - Apr-21 @ 23:00
Wind Visibility
130° at 10 knots 10,000+ meters
Clouds
  • No significant clouds
Conditions
Becoming Apr-21 @ 23:00 - Apr-22 @ 07:00
Wind Visibility
Variable at 2 knots 10,000+ meters
Clouds
  • No significant clouds
Conditions
Becoming Apr-22 @ 07:00 - Apr-22 @ 12:00
Wind Visibility
140° at 10 knots 10,000+ meters
Clouds
  • No significant clouds
Conditions